Dream Jasmine — 3ETG6 — position and weather

sailwx.info

Track history (hours):
 
Tides and Currents Weather Stations Pressure Air Temp Water Temp Dewpoint Dewpoint Depression Visibility Wind Speed Wind Dir Waves Ship Positions

Dream Jasmine

Last reported at 2018-Jun-13 17:58 UTC. Time now 2018-Jun-24 03:42 UTC.
Position S 36°12' E 174°57'.
Warning: this ship's position is 10 days out of date.

Length 186 m; draft 6.4 m.

Type: Cargo ship. MMSI: 370552000.

Date/timePositionNaut miles runAvg speedWind from/ knotsBaromVisibWave heightAir tempDewpointWater temp
2018-Jun-13 17:58S 36°12' E 174°57'5 9.6
2018-Jun-13 17:29S 36°17' E 174°58'4 9.3
2018-Jun-13 17:01S 36°21' E 174°59'5 9.1
2018-Jun-13 16:30S 36°26' E 174°60'5 9.5
2018-Jun-13 16:01S 36°30' E 174°60'5 9.7
2018-Jun-13 15:30S 36°35' E 174°59'5 9.8
2018-Jun-13 15:00S 36°39' E 174°55'5 9.9
2018-Jun-13 14:30S 36°43' E 174°51'4 8.7
2018-Jun-13 14:00S 36°47' E 174°48'4 7.1
2018-Jun-13 13:31S 36°50' E 174°47'1 2.1
2018-Jun-13 13:00S 36°50' E 174°46'0 0.1
2018-Jun-13 12:30S 36°50' E 174°46'0 0.1
2018-Jun-13 12:01S 36°50' E 174°46'0 0.1
2018-Jun-13 11:30S 36°50' E 174°46'0 0.0
2018-Jun-13 11:00S 36°50' E 174°46'0 0.0
2018-Jun-13 10:30S 36°50' E 174°46'0 0.0
2018-Jun-13 10:00S 36°51' E 174°46'0 0.1
2018-Jun-13 09:30S 36°50' E 174°46'0 0.0
2018-Jun-13 09:00S 36°50' E 174°46'0 0.1
2018-Jun-13 08:30S 36°50' E 174°46'0 0.0
2018-Jun-13 08:00S 36°50' E 174°46'0 0.0
2018-Jun-13 07:30S 36°50' E 174°46'0 0.0
2018-Jun-13 07:00S 36°50' E 174°46'0 0.0
2018-Jun-13 06:30S 36°51' E 174°46'0 0.0
2018-Jun-13 05:57S 36°50' E 174°46'0 0.1
2018-Jun-13 05:30S 36°50' E 174°46'0 0.0
2018-Jun-13 05:00S 36°50' E 174°46'0 0.1
2018-Jun-13 04:30S 36°50' E 174°46'0 0.0
2018-Jun-13 04:00S 36°50' E 174°46'0 0.0
2018-Jun-13 03:27S 36°50' E 174°46'0 0.0
2018-Jun-13 03:00S 36°50' E 174°46'0 0.0
2018-Jun-13 02:31S 36°50' E 174°46'0 0.0
2018-Jun-13 02:00S 36°50' E 174°46'0 0.1
2018-Jun-13 01:30S 36°50' E 174°46'0 0.1
2018-Jun-13 01:00S 36°50' E 174°46'0 0.0
2018-Jun-13 00:30S 36°50' E 174°46'0 0.0
2018-Jun-12 23:58S 36°50' E 174°46'0 0.0
2018-Jun-12 23:30S 36°50' E 174°46'0 0.0
2018-Jun-12 23:00S 36°50' E 174°46'0 0.0
2018-Jun-12 22:30S 36°50' E 174°46'0 0.0
2018-Jun-12 22:00S 36°50' E 174°46'0 0.0
2018-Jun-12 21:30S 36°50' E 174°46'0 0.0
2018-Jun-12 21:00S 36°50' E 174°46'0 0.0
2018-Jun-12 20:30S 36°50' E 174°46'0 0.0
2018-Jun-12 20:00S 36°50' E 174°46'0 0.0
2018-Jun-12 19:30S 36°50' E 174°46'0 0.0
2018-Jun-12 18:57S 36°51' E 174°46'0 0.1
2018-Jun-12 18:30S 36°51' E 174°46'0 0.0
2018-Jun-12 18:00S 36°50' E 174°46'0 0.0
2018-Jun-12 17:30S 36°50' E 174°46'0 0.1
2018-Jun-12 17:00S 36°50' E 174°46'0 0.0
2018-Jun-12 16:30S 36°50' E 174°46'0 0.0
2018-Jun-12 16:00S 36°51' E 174°46'0 0.0
2018-Jun-12 15:30S 36°51' E 174°46'0 0.2
2018-Jun-12 15:00S 36°50' E 174°46'3 5.2
2018-Jun-12 14:31S 36°50' E 174°49'5 9.9
2018-Jun-12 14:00S 36°45' E 174°50'5 9.5
2018-Jun-12 13:30S 36°41' E 174°54'4 7.8
2018-Jun-12 13:00S 36°38' E 174°56'613.1
2018-Jun-12 12:31S 36°32' E 174°60'713.6
2018-Jun-12 12:00S 36°25' E 174°59'713.8
2018-Jun-12 11:30S 36°18' E 174°58'713.7
2018-Jun-12 11:00S 36°12' E 174°58'  
2018-Jun-09 08:51S 26°48' E 153°11'614.3
2018-Jun-09 08:28S 26°54' E 153°11'917.5
2018-Jun-09 07:56S 27°02' E 153°15'716.0
2018-Jun-09 07:30S 27°08' E 153°21'815.5
2018-Jun-09 07:00S 27°14' E 153°16'10 4.0
2018-Jun-09 04:27S 27°23' E 153°10'0 0.0
2018-Jun-09 03:37S 27°23' E 153°10'0 0.0
2018-Jun-09 03:24S 27°23' E 153°10'0 0.0
2018-Jun-09 03:00S 27°23' E 153°10'0 0.0
2018-Jun-09 02:18S 27°23' E 153°10'0 0.0
2018-Jun-09 01:54S 27°23' E 153°10'0 0.3
2018-Jun-09 01:30S 27°23' E 153°10'0 0.2
2018-Jun-09 00:54S 27°23' E 153°10'0 0.0
2018-Jun-09 00:21S 27°23' E 153°10'0 0.0
2018-Jun-08 23:51S 27°23' E 153°10'0 0.0
2018-Jun-08 23:27S 27°23' E 153°10'0 0.1
2018-Jun-08 23:00S 27°23' E 153°10'0 0.0
2018-Jun-08 20:09S 27°23' E 153°10'0 0.0
2018-Jun-08 19:58S 27°23' E 153°10'0 0.0
2018-Jun-08 19:30S 27°23' E 153°10'0 0.0
2018-Jun-08 18:50S 27°23' E 153°10'0 0.1
2018-Jun-08 18:28S 27°23' E 153°10'0 0.1
2018-Jun-08 18:00S 27°23' E 153°10'0 0.0
2018-Jun-08 17:30S 27°23' E 153°10'0 0.0
2018-Jun-08 16:56S 27°23' E 153°10'0 0.0
2018-Jun-08 16:30S 27°23' E 153°10'0 0.1
2018-Jun-08 15:58S 27°23' E 153°10'0 0.0
2018-Jun-08 15:30S 27°23' E 153°10'0 0.1
2018-Jun-08 14:58S 27°23' E 153°10'0 0.1
2018-Jun-08 14:30S 27°23' E 153°10'0 0.0
2018-Jun-08 13:54S 27°23' E 153°10'0 0.0
2018-Jun-08 13:15S 27°23' E 153°10'0 0.0
2018-Jun-08 12:57S 27°23' E 153°10'0 0.0
2018-Jun-08 12:13S 27°23' E 153°10'0 0.2
2018-Jun-08 11:57S 27°23' E 153°10'0 0.1
2018-Jun-08 11:16S 27°23' E 153°10'0 0.0
2018-Jun-08 10:56S 27°23' E 153°10'0 0.2
2018-Jun-08 10:23S 27°23' E 153°10'3 6.1
2018-Jun-08 09:54S 27°20' E 153°11'512.8
2018-Jun-08 09:30S 27°17' E 153°15'816.0
2018-Jun-08 08:58S 27°10' E 153°21'915.3
2018-Jun-08 08:23S 27°02' E 153°15'916.6
2018-Jun-08 07:50S 26°54' E 153°11'  
Track history (hours):
 
Tides and Currents Weather Stations Pressure Air Temp Water Temp Dewpoint Dewpoint Depression Visibility Wind Speed Wind Dir Waves Ship Positions

Dream Jasmine

Last reported at 2018-Jun-13 17:58 UTC. Time now 2018-Jun-24 03:42 UTC.
Position S 36°12' E 174°57'.
Warning: this ship's position is 10 days out of date.

Length 186 m; draft 6.4 m.

Type: Cargo ship. MMSI: 370552000.

Date/timePositionNaut miles runAvg speedWind from/ knotsBaromVisibWave heightAir tempDewpointWater temp
2018-Jun-13 17:58S 36°12' E 174°57'5 9.6
2018-Jun-13 17:29S 36°17' E 174°58'4 9.3
2018-Jun-13 17:01S 36°21' E 174°59'5 9.1
2018-Jun-13 16:30S 36°26' E 174°60'5 9.5
2018-Jun-13 16:01S 36°30' E 174°60'5 9.7
2018-Jun-13 15:30S 36°35' E 174°59'5 9.8
2018-Jun-13 15:00S 36°39' E 174°55'5 9.9
2018-Jun-13 14:30S 36°43' E 174°51'4 8.7
2018-Jun-13 14:00S 36°47' E 174°48'4 7.1
2018-Jun-13 13:31S 36°50' E 174°47'1 2.1
2018-Jun-13 13:00S 36°50' E 174°46'0 0.1
2018-Jun-13 12:30S 36°50' E 174°46'0 0.1
2018-Jun-13 12:01S 36°50' E 174°46'0 0.1
2018-Jun-13 11:30S 36°50' E 174°46'0 0.0
2018-Jun-13 11:00S 36°50' E 174°46'0 0.0
2018-Jun-13 10:30S 36°50' E 174°46'0 0.0
2018-Jun-13 10:00S 36°51' E 174°46'0 0.1
2018-Jun-13 09:30S 36°50' E 174°46'0 0.0
2018-Jun-13 09:00S 36°50' E 174°46'0 0.1
2018-Jun-13 08:30S 36°50' E 174°46'0 0.0
2018-Jun-13 08:00S 36°50' E 174°46'0 0.0
2018-Jun-13 07:30S 36°50' E 174°46'0 0.0
2018-Jun-13 07:00S 36°50' E 174°46'0 0.0
2018-Jun-13 06:30S 36°51' E 174°46'0 0.0
2018-Jun-13 05:57S 36°50' E 174°46'0 0.1
2018-Jun-13 05:30S 36°50' E 174°46'0 0.0
2018-Jun-13 05:00S 36°50' E 174°46'0 0.1
2018-Jun-13 04:30S 36°50' E 174°46'0 0.0
2018-Jun-13 04:00S 36°50' E 174°46'0 0.0
2018-Jun-13 03:27S 36°50' E 174°46'0 0.0
2018-Jun-13 03:00S 36°50' E 174°46'0 0.0
2018-Jun-13 02:31S 36°50' E 174°46'0 0.0
2018-Jun-13 02:00S 36°50' E 174°46'0 0.1
2018-Jun-13 01:30S 36°50' E 174°46'0 0.1
2018-Jun-13 01:00S 36°50' E 174°46'0 0.0
2018-Jun-13 00:30S 36°50' E 174°46'0 0.0
2018-Jun-12 23:58S 36°50' E 174°46'0 0.0
2018-Jun-12 23:30S 36°50' E 174°46'0 0.0
2018-Jun-12 23:00S 36°50' E 174°46'0 0.0
2018-Jun-12 22:30S 36°50' E 174°46'0 0.0
2018-Jun-12 22:00S 36°50' E 174°46'0 0.0
2018-Jun-12 21:30S 36°50' E 174°46'0 0.0
2018-Jun-12 21:00S 36°50' E 174°46'0 0.0
2018-Jun-12 20:30S 36°50' E 174°46'0 0.0
2018-Jun-12 20:00S 36°50' E 174°46'0 0.0
2018-Jun-12 19:30S 36°50' E 174°46'0 0.0
2018-Jun-12 18:57S 36°51' E 174°46'0 0.1
2018-Jun-12 18:30S 36°51' E 174°46'0 0.0
2018-Jun-12 18:00S 36°50' E 174°46'0 0.0
2018-Jun-12 17:30S 36°50' E 174°46'0 0.1
2018-Jun-12 17:00S 36°50' E 174°46'0 0.0
2018-Jun-12 16:30S 36°50' E 174°46'0 0.0
2018-Jun-12 16:00S 36°51' E 174°46'0 0.0
2018-Jun-12 15:30S 36°51' E 174°46'0 0.2
2018-Jun-12 15:00S 36°50' E 174°46'3 5.2
2018-Jun-12 14:31S 36°50' E 174°49'5 9.9
2018-Jun-12 14:00S 36°45' E 174°50'5 9.5
2018-Jun-12 13:30S 36°41' E 174°54'4 7.8
2018-Jun-12 13:00S 36°38' E 174°56'613.1
2018-Jun-12 12:31S 36°32' E 174°60'713.6
2018-Jun-12 12:00S 36°25' E 174°59'713.8
2018-Jun-12 11:30S 36°18' E 174°58'713.7
2018-Jun-12 11:00S 36°12' E 174°58'  
2018-Jun-09 08:51S 26°48' E 153°11'614.3
2018-Jun-09 08:28S 26°54' E 153°11'917.5
2018-Jun-09 07:56S 27°02' E 153°15'716.0
2018-Jun-09 07:30S 27°08' E 153°21'815.5
2018-Jun-09 07:00S 27°14' E 153°16'10 4.0
2018-Jun-09 04:27S 27°23' E 153°10'0 0.0
2018-Jun-09 03:37S 27°23' E 153°10'0 0.0
2018-Jun-09 03:24S 27°23' E 153°10'0 0.0
2018-Jun-09 03:00S 27°23' E 153°10'0 0.0
2018-Jun-09 02:18S 27°23' E 153°10'0 0.0
2018-Jun-09 01:54S 27°23' E 153°10'0 0.3
2018-Jun-09 01:30S 27°23' E 153°10'0 0.2
2018-Jun-09 00:54S 27°23' E 153°10'0 0.0
2018-Jun-09 00:21S 27°23' E 153°10'0 0.0
2018-Jun-08 23:51S 27°23' E 153°10'0 0.0
2018-Jun-08 23:27S 27°23' E 153°10'0 0.1
2018-Jun-08 23:00S 27°23' E 153°10'0 0.0
2018-Jun-08 20:09S 27°23' E 153°10'0 0.0
2018-Jun-08 19:58S 27°23' E 153°10'0 0.0
2018-Jun-08 19:30S 27°23' E 153°10'0 0.0
2018-Jun-08 18:50S 27°23' E 153°10'0 0.1
2018-Jun-08 18:28S 27°23' E 153°10'0 0.1
2018-Jun-08 18:00S 27°23' E 153°10'0 0.0
2018-Jun-08 17:30S 27°23' E 153°10'0 0.0
2018-Jun-08 16:56S 27°23' E 153°10'0 0.0
2018-Jun-08 16:30S 27°23' E 153°10'0 0.1
2018-Jun-08 15:58S 27°23' E 153°10'0 0.0
2018-Jun-08 15:30S 27°23' E 153°10'0 0.1
2018-Jun-08 14:58S 27°23' E 153°10'0 0.1
2018-Jun-08 14:30S 27°23' E 153°10'0 0.0
2018-Jun-08 13:54S 27°23' E 153°10'0 0.0
2018-Jun-08 13:15S 27°23' E 153°10'0 0.0
2018-Jun-08 12:57S 27°23' E 153°10'0 0.0
2018-Jun-08 12:13S 27°23' E 153°10'0 0.2
2018-Jun-08 11:57S 27°23' E 153°10'0 0.1
2018-Jun-08 11:16S 27°23' E 153°10'0 0.0
2018-Jun-08 10:56S 27°23' E 153°10'0 0.2
2018-Jun-08 10:23S 27°23' E 153°10'3 6.1
2018-Jun-08 09:54S 27°20' E 153°11'512.8
2018-Jun-08 09:30S 27°17' E 153°15'816.0
2018-Jun-08 08:58S 27°10' E 153°21'915.3
2018-Jun-08 08:23S 27°02' E 153°15'916.6
2018-Jun-08 07:50S 26°54' E 153°11'  

Dump ship's entire track history